createdAt,value
2018-12-17T00:00:43.425Z,19.27
2018-12-17T00:03:10.884Z,19.80
2018-12-17T00:05:41.739Z,18.90
2018-12-17T00:08:07.809Z,18.50
2018-12-17T00:10:35.277Z,20.20
2018-12-17T00:13:02.826Z,18.60
2018-12-17T00:15:30.310Z,16.67
2018-12-17T00:17:57.769Z,18.77
2018-12-17T00:20:25.237Z,18.63
2018-12-17T00:22:52.699Z,17.40
2018-12-17T00:25:20.160Z,19.33
2018-12-17T00:27:47.614Z,19.93
2018-12-17T00:30:15.105Z,19.70
2018-12-17T00:32:42.575Z,20.30
2018-12-17T00:35:10.029Z,22.27
2018-12-17T00:37:37.517Z,22.60
2018-12-17T00:40:06.618Z,21.37
2018-12-17T00:42:34.137Z,22.27
2018-12-17T00:45:01.601Z,20.60
2018-12-17T00:47:29.062Z,21.23
2018-12-17T00:49:56.527Z,22.87
2018-12-17T00:52:23.988Z,20.30
2018-12-17T00:54:51.444Z,20.97
2018-12-17T00:57:18.908Z,22.50
2018-12-17T00:59:46.372Z,21.00
2018-12-17T01:02:13.841Z,21.17
2018-12-17T01:04:41.304Z,22.03
2018-12-17T01:07:08.764Z,22.90
2018-12-17T01:09:36.220Z,22.70
2018-12-17T01:12:03.798Z,23.00
2018-12-17T01:14:31.240Z,23.17
2018-12-17T01:16:58.737Z,23.93
2018-12-17T01:19:26.247Z,21.40
2018-12-17T01:21:53.973Z,22.43
2018-12-17T01:24:21.432Z,22.60
2018-12-17T01:26:48.892Z,21.17
2018-12-17T01:29:16.368Z,21.67
2018-12-17T01:31:43.828Z,21.40
2018-12-17T01:34:11.292Z,21.80
2018-12-17T01:36:38.825Z,20.20
2018-12-17T01:39:06.572Z,18.10
2018-12-17T01:41:34.140Z,17.37
2018-12-17T01:44:01.714Z,17.07
2018-12-17T01:46:29.197Z,18.50
2018-12-17T01:48:56.672Z,17.70
2018-12-17T01:51:24.217Z,18.97
2018-12-17T01:53:51.680Z,20.00
2018-12-17T01:56:19.136Z,19.47
2018-12-17T01:58:46.600Z,21.83
2018-12-17T02:01:14.053Z,21.40
2018-12-17T02:03:41.533Z,18.60
2018-12-17T02:06:09.039Z,18.97
2018-12-17T02:08:36.537Z,18.27
2018-12-17T02:11:04.165Z,18.77
2018-12-17T02:13:31.640Z,20.97
2018-12-17T02:15:59.146Z,18.80
2018-12-17T02:18:26.592Z,20.50
2018-12-17T02:20:54.053Z,20.10
2018-12-17T02:23:21.513Z,19.40
2018-12-17T02:25:48.979Z,21.10
2018-12-17T02:28:16.437Z,19.00
2018-12-17T02:30:43.906Z,19.83
2018-12-17T02:33:11.501Z,21.67
2018-12-17T02:35:38.970Z,21.50
2018-12-17T02:38:06.432Z,19.30
2018-12-17T02:40:34.093Z,19.73
2018-12-17T02:43:01.559Z,20.80
2018-12-17T02:45:29.016Z,18.20
2018-12-17T02:47:56.506Z,18.70
2018-12-17T02:50:24.052Z,21.20
2018-12-17T02:52:51.594Z,20.50
2018-12-17T02:55:19.049Z,22.40
2018-12-17T02:57:46.516Z,22.57
2018-12-17T03:00:14.031Z,21.17
2018-12-17T03:02:41.524Z,20.27
2018-12-17T03:05:09.187Z,19.43
2018-12-17T03:07:36.649Z,20.57
2018-12-17T03:10:05.397Z,19.57
2018-12-17T03:12:32.869Z,20.47
2018-12-17T03:15:00.324Z,18.30
2018-12-17T03:17:27.791Z,20.77
2018-12-17T03:19:55.249Z,21.10
2018-12-17T03:22:22.713Z,18.27
2018-12-17T03:24:50.171Z,19.67
2018-12-17T03:27:17.628Z,20.40
2018-12-17T03:29:45.100Z,21.20
2018-12-17T03:32:12.579Z,20.70
2018-12-17T03:34:40.139Z,20.87
2018-12-17T03:37:07.606Z,19.87
2018-12-17T03:39:35.068Z,19.90
2018-12-17T03:42:02.578Z,21.20
2018-12-17T03:44:30.039Z,21.13
2018-12-17T03:46:57.558Z,20.80
2018-12-17T03:49:25.054Z,22.37
2018-12-17T03:51:52.593Z,20.80
2018-12-17T03:54:20.103Z,21.87
2018-12-17T03:56:47.581Z,20.73
2018-12-17T03:59:15.049Z,21.20
2018-12-17T04:01:42.498Z,18.97
2018-12-17T04:04:10.015Z,20.87
2018-12-17T04:06:37.486Z,23.07
2018-12-17T04:09:06.026Z,22.00
2018-12-17T04:11:33.487Z,21.60
2018-12-17T04:14:02.962Z,23.90
2018-12-17T04:16:30.430Z,21.30
2018-12-17T04:18:57.934Z,20.37
2018-12-17T04:21:25.435Z,19.37
2018-12-17T04:23:52.915Z,21.53
2018-12-17T04:26:20.479Z,21.83
2018-12-17T04:28:47.961Z,20.10
2018-12-17T04:31:15.473Z,22.90
2018-12-17T04:33:42.945Z,24.10
2018-12-17T04:36:10.428Z,30.47
2018-12-17T04:38:37.991Z,21.30
2018-12-17T04:41:05.454Z,22.50
2018-12-17T04:43:32.931Z,21.87
2018-12-17T04:46:00.394Z,21.50
2018-12-17T04:48:27.882Z,21.07
2018-12-17T04:50:55.346Z,22.10
2018-12-17T04:53:22.829Z,21.87
2018-12-17T04:55:50.326Z,22.93
2018-12-17T04:58:17.834Z,20.10
2018-12-17T05:00:45.390Z,22.97
2018-12-17T05:03:12.935Z,23.30
2018-12-17T05:05:40.397Z,22.70
2018-12-17T05:08:07.956Z,35.83
2018-12-17T05:10:35.448Z,25.33
2018-12-17T05:13:02.946Z,24.73
2018-12-17T05:15:30.457Z,23.43
2018-12-17T05:17:57.923Z,27.83
2018-12-17T05:20:25.422Z,24.93
2018-12-17T05:22:52.934Z,22.47
2018-12-17T05:25:20.400Z,23.60
2018-12-17T05:27:47.863Z,23.00
2018-12-17T05:30:15.673Z,23.90
2018-12-17T05:32:43.141Z,25.23
2018-12-17T05:35:10.683Z,24.80
2018-12-17T05:37:38.166Z,26.20
2018-12-17T05:40:06.703Z,24.63
2018-12-17T05:42:34.251Z,23.67
2018-12-17T05:45:01.724Z,25.20
2018-12-17T05:47:29.186Z,23.33
2018-12-17T05:49:56.685Z,21.47
2018-12-17T05:52:24.316Z,20.50
2018-12-17T05:54:51.774Z,23.67
2018-12-17T05:57:19.250Z,23.30
2018-12-17T05:59:46.722Z,22.53
2018-12-17T06:02:14.231Z,20.77
2018-12-17T06:04:41.698Z,22.10
2018-12-17T06:07:09.180Z,22.23
2018-12-17T06:09:36.974Z,22.73
2018-12-17T06:12:04.504Z,24.30
2018-12-17T06:14:31.963Z,22.97
2018-12-17T06:16:59.430Z,25.30
2018-12-17T06:19:26.898Z,25.97
2018-12-17T06:24:28.987Z,29.80
2018-12-17T06:26:56.462Z,28.67
2018-12-17T06:29:23.918Z,25.60
2018-12-17T06:31:51.413Z,25.20
2018-12-17T06:34:18.870Z,23.90
2018-12-17T06:36:46.329Z,23.63
2018-12-17T06:39:14.849Z,26.43
2018-12-17T06:41:42.456Z,24.97
2018-12-17T06:44:09.941Z,28.00
2018-12-17T06:46:37.425Z,26.30
2018-12-17T06:49:04.913Z,28.93
2018-12-17T06:51:32.511Z,30.63
2018-12-17T06:53:59.974Z,26.77
2018-12-17T06:56:27.433Z,27.00
2018-12-17T06:58:54.893Z,26.03
2018-12-17T07:01:22.404Z,25.00
2018-12-17T07:03:49.881Z,27.77
2018-12-17T07:06:17.406Z,30.20
2018-12-17T07:08:44.882Z,29.30
2018-12-17T07:11:12.354Z,27.43
2018-12-17T07:13:39.818Z,27.27
2018-12-17T07:16:07.312Z,28.13
2018-12-17T07:18:34.779Z,27.13
2018-12-17T07:21:02.241Z,27.40
2018-12-17T07:23:29.710Z,26.17
2018-12-17T07:25:57.215Z,27.00
2018-12-17T07:28:24.681Z,26.50
2018-12-17T07:30:52.214Z,26.30
2018-12-17T07:33:19.695Z,23.47
2018-12-17T07:35:47.157Z,24.50
2018-12-17T07:38:14.635Z,26.50
2018-12-17T07:40:42.109Z,25.63
2018-12-17T07:43:09.571Z,25.17
2018-12-17T07:45:37.043Z,25.90
2018-12-17T07:48:04.566Z,27.33
2018-12-17T07:50:32.124Z,28.70
2018-12-17T07:52:59.915Z,24.07
2018-12-17T07:55:27.386Z,22.00
2018-12-17T07:57:54.842Z,21.97
2018-12-17T08:00:22.353Z,18.70
2018-12-17T08:02:49.803Z,21.17
2018-12-17T08:05:17.312Z,19.90
2018-12-17T08:07:44.797Z,19.70
2018-12-17T08:10:12.257Z,21.20
2018-12-17T08:12:39.718Z,22.43
2018-12-17T08:15:07.268Z,19.50
2018-12-17T08:17:34.726Z,21.30
2018-12-17T08:20:02.279Z,22.80
2018-12-17T08:22:29.881Z,23.27
2018-12-17T08:24:57.353Z,25.33
2018-12-17T08:27:24.827Z,31.73
2018-12-17T08:29:52.302Z,24.47
2018-12-17T08:32:19.875Z,24.10
2018-12-17T08:34:47.339Z,23.70
2018-12-17T08:37:14.811Z,26.00
2018-12-17T08:39:42.305Z,26.60
2018-12-17T08:42:09.766Z,30.97
2018-12-17T08:44:37.274Z,35.33
2018-12-17T08:47:04.779Z,32.73
2018-12-17T08:49:32.333Z,30.67
2018-12-17T08:51:59.802Z,27.00
2018-12-17T08:54:27.281Z,25.50
2018-12-17T08:56:54.735Z,25.87
2018-12-17T08:59:22.219Z,24.70
2018-12-17T09:01:49.722Z,24.67
2018-12-17T09:04:17.198Z,26.47
2018-12-17T09:06:44.711Z,26.73
2018-12-17T09:09:12.205Z,24.50
2018-12-17T09:11:39.670Z,24.67
2018-12-17T09:14:07.173Z,23.40
2018-12-17T09:16:34.643Z,24.33
2018-12-17T09:19:02.096Z,22.97
2018-12-17T09:21:29.570Z,22.23
2018-12-17T09:23:57.027Z,24.03
2018-12-17T09:26:24.508Z,25.23
2018-12-17T09:28:51.968Z,22.80
2018-12-17T09:31:19.466Z,23.20
2018-12-17T09:33:46.925Z,21.93
2018-12-17T09:36:14.437Z,23.47
2018-12-17T09:38:41.890Z,20.30
2018-12-17T09:41:09.408Z,21.90
2018-12-17T09:43:36.873Z,21.47
2018-12-17T09:46:04.454Z,21.50
2018-12-17T09:48:31.954Z,20.93
2018-12-17T09:50:59.447Z,21.17
2018-12-17T09:53:26.910Z,25.03
2018-12-17T09:55:54.370Z,26.30
2018-12-17T09:58:21.866Z,27.37
2018-12-17T10:00:49.374Z,28.77
2018-12-17T10:03:16.839Z,28.20
2018-12-17T10:05:44.335Z,33.80
2018-12-17T10:08:11.823Z,29.03
2018-12-17T10:10:39.368Z,30.07
2018-12-17T10:13:06.930Z,31.93
2018-12-17T10:15:34.476Z,29.77
2018-12-17T10:18:01.938Z,31.93
2018-12-17T10:20:29.402Z,29.60
2018-12-17T10:22:56.875Z,30.10
2018-12-17T10:25:24.370Z,28.97
2018-12-17T10:27:51.843Z,27.40
2018-12-17T10:30:19.297Z,29.10
2018-12-17T10:32:46.776Z,27.20
2018-12-17T10:35:14.307Z,28.30
2018-12-17T10:37:41.764Z,20.87
2018-12-17T10:40:09.290Z,28.73
2018-12-17T10:42:36.796Z,26.27
2018-12-17T10:45:05.330Z,23.03
2018-12-17T10:47:32.790Z,24.47
2018-12-17T10:50:00.288Z,25.07
2018-12-17T10:52:27.753Z,23.87
2018-12-17T10:54:55.215Z,19.10
2018-12-17T10:57:22.677Z,21.83
2018-12-17T10:59:50.175Z,22.63
2018-12-17T11:02:19.626Z,23.80
2018-12-17T11:04:49.134Z,20.60
2018-12-17T11:07:16.609Z,19.17
2018-12-17T11:09:44.070Z,19.07
2018-12-17T11:12:11.542Z,18.70
2018-12-17T11:14:39.003Z,17.40
2018-12-17T11:20:19.179Z,17.37
2018-12-17T11:22:46.655Z,16.60
2018-12-17T11:25:14.116Z,15.97
2018-12-17T11:27:41.594Z,14.30
2018-12-17T11:30:09.533Z,15.57
2018-12-17T11:32:38.987Z,14.47
2018-12-17T11:35:06.454Z,14.70
2018-12-17T11:37:42.419Z,14.83
2018-12-17T11:40:10.000Z,15.60
2018-12-17T11:42:37.460Z,13.33
2018-12-17T11:45:05.006Z,16.40
2018-12-17T11:47:32.462Z,15.20
2018-12-17T11:49:59.983Z,13.43
2018-12-17T11:52:27.496Z,14.93
2018-12-17T11:54:55.032Z,15.03
2018-12-17T12:00:32.343Z,14.53
2018-12-17T12:02:59.798Z,15.10
2018-12-17T12:05:27.288Z,13.47
2018-12-17T12:07:54.762Z,15.40
2018-12-17T12:10:22.212Z,17.37
2018-12-17T12:12:49.688Z,18.20
2018-12-17T12:15:17.156Z,16.33
2018-12-17T12:17:44.622Z,16.17
2018-12-17T12:20:12.207Z,16.07
2018-12-17T12:22:39.686Z,15.57
2018-12-17T12:25:07.187Z,18.77
2018-12-17T12:27:34.734Z,17.93
2018-12-17T12:30:03.626Z,18.13
2018-12-17T12:32:31.214Z,17.20
2018-12-17T12:34:58.718Z,15.83
2018-12-17T12:37:26.191Z,18.07
2018-12-17T12:39:53.651Z,18.70
2018-12-17T12:42:21.127Z,14.27
2018-12-17T12:44:48.587Z,14.23
2018-12-17T12:47:16.039Z,14.33
2018-12-17T12:49:43.520Z,15.30
2018-12-17T12:52:10.983Z,15.03
2018-12-17T12:54:38.447Z,16.63
2018-12-17T12:57:05.902Z,13.20
2018-12-17T12:59:33.428Z,13.20
2018-12-17T13:02:00.985Z,13.73
2018-12-17T13:04:28.455Z,12.57
2018-12-17T13:06:55.909Z,13.60
2018-12-17T13:09:23.375Z,12.00
2018-12-17T13:11:50.842Z,14.07
2018-12-17T13:14:18.311Z,12.70
2018-12-17T13:16:45.807Z,13.60
2018-12-17T13:19:13.279Z,14.60
2018-12-17T13:21:40.730Z,15.13
2018-12-17T13:24:08.215Z,14.90
2018-12-17T13:26:35.671Z,13.03
2018-12-17T13:29:03.324Z,14.13
2018-12-17T13:31:30.798Z,13.73
2018-12-17T13:33:58.264Z,12.43
2018-12-17T13:36:25.719Z,12.33
2018-12-17T13:38:53.196Z,12.93
2018-12-17T13:41:20.673Z,13.37
2018-12-17T13:43:48.157Z,12.60
2018-12-17T13:46:15.617Z,12.50
2018-12-17T13:48:43.121Z,13.43
2018-12-17T13:54:22.870Z,12.00
2018-12-17T13:56:50.329Z,13.53
2018-12-17T13:59:17.802Z,11.80
2018-12-17T14:01:51.185Z,11.70
2018-12-17T14:04:14.747Z,11.50
2018-12-17T14:06:42.216Z,10.33
2018-12-17T14:09:09.734Z,11.23
2018-12-17T14:11:37.211Z,12.97
2018-12-17T14:14:04.891Z,13.40
2018-12-17T14:16:38.062Z,12.47
2018-12-17T14:19:11.419Z,9.53
2018-12-17T14:21:59.706Z,9.27
2018-12-17T14:24:27.215Z,7.00
2018-12-17T14:26:54.710Z,10.23
2018-12-17T14:29:22.179Z,10.23
2018-12-17T14:31:49.646Z,9.87
2018-12-17T14:34:17.102Z,8.60
2018-12-17T14:36:44.606Z,12.03
2018-12-17T14:39:12.951Z,7.53
2018-12-17T14:41:40.410Z,8.47
2018-12-17T14:44:13.618Z,7.27
2018-12-17T14:46:46.826Z,9.90
2018-12-17T14:49:14.286Z,16.60
2018-12-17T14:51:41.754Z,27.47
2018-12-17T14:54:09.215Z,12.17
2018-12-17T14:56:36.679Z,7.97
2018-12-17T14:59:04.175Z,5.83
2018-12-17T15:01:35.771Z,7.90
2018-12-17T15:04:01.091Z,8.53
2018-12-17T15:06:28.565Z,8.20
2018-12-17T15:08:56.014Z,7.80
2018-12-17T15:11:23.479Z,6.70
2018-12-17T15:13:50.979Z,7.30
2018-12-17T15:16:18.443Z,6.93
2018-12-17T15:18:45.898Z,7.00
2018-12-17T15:21:13.380Z,7.30
2018-12-17T15:23:40.838Z,7.40
2018-12-17T15:26:08.302Z,5.50
2018-12-17T15:28:35.886Z,7.33
2018-12-17T15:31:03.477Z,6.10
2018-12-17T15:33:31.006Z,6.20
2018-12-17T15:35:58.475Z,5.37
2018-12-17T15:38:25.923Z,6.80
2018-12-17T15:40:53.414Z,6.10
2018-12-17T15:43:20.875Z,6.07
2018-12-17T15:45:48.329Z,5.80
2018-12-17T15:48:15.782Z,5.87
2018-12-17T15:50:43.262Z,6.63
2018-12-17T15:53:10.711Z,6.00
2018-12-17T15:55:38.199Z,6.63
2018-12-17T15:58:05.661Z,8.20
2018-12-17T16:00:33.102Z,8.10
2018-12-17T16:03:00.572Z,8.67
2018-12-17T16:05:28.062Z,8.50
2018-12-17T16:07:55.530Z,7.70
2018-12-17T16:10:23.152Z,8.97
2018-12-17T16:12:50.634Z,9.80
2018-12-17T16:15:18.092Z,10.57
2018-12-17T16:17:45.607Z,10.13
2018-12-17T16:20:13.141Z,11.80
2018-12-17T16:22:40.602Z,11.60
2018-12-17T16:25:08.148Z,11.53
2018-12-17T16:27:35.654Z,10.90
2018-12-17T16:30:04.002Z,10.90
2018-12-17T16:32:31.486Z,11.93
2018-12-17T16:34:58.979Z,11.43
2018-12-17T16:37:26.446Z,12.10
2018-12-17T16:39:53.906Z,9.90
2018-12-17T16:42:21.370Z,12.67
2018-12-17T16:44:48.831Z,12.90
2018-12-17T16:47:16.340Z,12.97
2018-12-17T16:49:43.863Z,11.97
2018-12-17T16:52:11.323Z,12.50
2018-12-17T16:54:40.120Z,13.27
2018-12-17T16:57:07.752Z,10.57
2018-12-17T16:59:35.207Z,10.50
2018-12-17T17:02:04.693Z,10.40
2018-12-17T17:04:32.131Z,11.70
2018-12-17T17:06:59.589Z,11.50
2018-12-17T17:09:27.047Z,11.83
2018-12-17T17:11:54.514Z,12.90
2018-12-17T17:14:21.984Z,11.97
2018-12-17T17:16:49.483Z,12.63
2018-12-17T17:19:16.969Z,12.57
2018-12-17T17:21:44.676Z,14.23
2018-12-17T17:24:12.150Z,14.90
2018-12-17T17:26:39.610Z,15.30
2018-12-17T17:29:08.051Z,14.20
2018-12-17T17:31:35.526Z,20.17
2018-12-17T17:34:02.987Z,17.63
2018-12-17T17:36:30.451Z,15.00
2018-12-17T17:38:58.059Z,14.83
2018-12-17T17:41:25.519Z,14.70
2018-12-17T17:43:53.061Z,13.80
2018-12-17T17:46:20.527Z,13.90
2018-12-17T17:48:48.025Z,12.10
2018-12-17T17:51:15.510Z,13.10
2018-12-17T17:53:42.966Z,13.43
2018-12-17T17:56:10.415Z,13.03
2018-12-17T17:58:37.922Z,13.67
2018-12-17T18:01:05.511Z,13.47
2018-12-17T18:03:33.018Z,12.40
2018-12-17T18:06:00.559Z,13.60
2018-12-17T18:08:28.085Z,13.77
2018-12-17T18:10:55.542Z,14.50
2018-12-17T18:13:23.015Z,15.20
2018-12-17T18:15:50.471Z,15.33
2018-12-17T18:18:17.940Z,16.60
2018-12-17T18:20:45.394Z,19.33
2018-12-17T18:23:12.865Z,16.30
2018-12-17T18:25:40.450Z,14.07
2018-12-17T18:28:08.009Z,14.00
2018-12-17T18:30:35.457Z,13.53
2018-12-17T18:33:02.970Z,13.87
2018-12-17T18:35:30.440Z,12.63
2018-12-17T18:37:57.905Z,13.07
2018-12-17T18:40:25.398Z,13.90
2018-12-17T18:42:52.874Z,14.43
2018-12-17T18:45:20.383Z,13.80
2018-12-17T18:47:47.924Z,14.50
2018-12-17T18:50:15.382Z,15.87
2018-12-17T18:52:42.842Z,15.07
2018-12-17T18:55:10.319Z,14.73
2018-12-17T18:57:37.776Z,15.07
2018-12-17T19:00:08.091Z,16.83
2018-12-17T19:02:35.544Z,16.53
2018-12-17T19:05:03.902Z,20.07
2018-12-17T19:07:31.429Z,29.60
2018-12-17T19:09:58.895Z,25.40
2018-12-17T19:12:26.406Z,18.20
2018-12-17T19:14:53.876Z,23.50
2018-12-17T19:17:21.378Z,22.13
2018-12-17T19:19:48.851Z,21.20
2018-12-17T19:22:16.334Z,19.20
2018-12-17T19:24:43.816Z,19.80
2018-12-17T19:27:11.279Z,16.83
2018-12-17T19:29:38.872Z,15.53
2018-12-17T19:32:06.384Z,15.20
2018-12-17T19:34:33.868Z,17.40
2018-12-17T19:37:01.331Z,24.73
2018-12-17T19:39:28.819Z,17.40
2018-12-17T19:41:56.280Z,18.10
2018-12-17T19:44:23.796Z,17.47
2018-12-17T19:46:51.310Z,18.20
2018-12-17T19:49:18.917Z,18.63
2018-12-17T19:51:46.474Z,18.00
2018-12-17T19:54:13.993Z,17.90
2018-12-17T19:56:41.459Z,17.83
2018-12-17T19:59:08.960Z,18.67
2018-12-17T20:01:36.420Z,20.50
2018-12-17T20:04:03.951Z,22.27
2018-12-17T20:06:31.423Z,20.50
2018-12-17T20:08:58.881Z,21.67
2018-12-17T20:11:26.481Z,20.13
2018-12-17T20:13:53.935Z,19.90
2018-12-17T20:16:21.445Z,18.17
2018-12-17T20:18:48.907Z,16.73
2018-12-17T20:21:16.372Z,26.90
2018-12-17T20:23:43.837Z,22.00
2018-12-17T20:26:11.308Z,23.57
2018-12-17T20:28:38.768Z,24.53
2018-12-17T20:31:06.290Z,25.13
2018-12-17T20:33:33.742Z,23.10
2018-12-17T20:36:01.202Z,23.17
2018-12-17T20:38:28.656Z,29.17
2018-12-17T20:40:56.168Z,28.90
2018-12-17T20:43:23.633Z,24.33
2018-12-17T20:45:51.100Z,22.97
2018-12-17T20:48:18.567Z,22.20
2018-12-17T20:50:46.054Z,17.10
2018-12-17T20:53:13.511Z,16.33
2018-12-17T20:55:40.971Z,16.60
2018-12-17T20:58:08.438Z,17.77
2018-12-17T21:00:35.918Z,16.30
2018-12-17T21:03:03.430Z,14.87
2018-12-17T21:05:30.931Z,15.27
2018-12-17T21:07:58.461Z,15.50
2018-12-17T21:10:25.920Z,16.67
2018-12-17T21:12:53.386Z,16.50
2018-12-17T21:15:20.848Z,15.17
2018-12-17T21:17:48.315Z,14.87
2018-12-17T21:20:15.786Z,17.90
2018-12-17T21:22:43.254Z,17.87
2018-12-17T21:25:10.729Z,16.13
2018-12-17T21:27:38.217Z,18.97
2018-12-17T21:30:06.867Z,16.97
2018-12-17T21:32:34.334Z,17.70
2018-12-17T21:35:01.807Z,24.90
2018-12-17T21:37:29.280Z,22.07
2018-12-17T21:39:56.747Z,19.77
2018-12-17T21:42:24.212Z,18.53
2018-12-17T21:44:51.691Z,19.83
2018-12-17T21:47:19.151Z,22.77
2018-12-17T21:49:46.610Z,20.87
2018-12-17T21:52:14.079Z,21.00
2018-12-17T21:54:41.550Z,23.07
2018-12-17T21:57:09.012Z,21.60
2018-12-17T21:59:36.474Z,24.00
2018-12-17T22:02:04.454Z,21.77
2018-12-17T22:04:31.953Z,27.70
2018-12-17T22:06:59.423Z,25.17
2018-12-17T22:09:26.903Z,25.90
2018-12-17T22:11:54.359Z,26.20
2018-12-17T22:14:21.818Z,23.83
2018-12-17T22:16:49.311Z,22.30
2018-12-17T22:19:16.775Z,20.90
2018-12-17T22:21:44.258Z,20.90
2018-12-17T22:24:11.727Z,18.43
2018-12-17T22:26:39.187Z,18.33
2018-12-17T22:29:06.663Z,17.53
2018-12-17T22:31:34.127Z,16.30
2018-12-17T22:34:01.609Z,16.10
2018-12-17T22:36:29.074Z,15.07
2018-12-17T22:38:56.630Z,13.67
2018-12-17T22:41:24.086Z,13.73
2018-12-17T22:43:51.562Z,15.17
2018-12-17T22:46:19.022Z,14.93
2018-12-17T22:48:46.495Z,14.90
2018-12-17T22:51:13.965Z,13.13
2018-12-17T22:53:41.428Z,14.10
2018-12-17T22:56:08.886Z,14.10
2018-12-17T22:58:42.138Z,14.20
2018-12-17T23:01:05.903Z,14.37
2018-12-17T23:03:33.374Z,12.77
2018-12-17T23:06:00.844Z,16.87
2018-12-17T23:08:28.359Z,12.70
2018-12-17T23:11:07.774Z,13.20
2018-12-17T23:13:47.202Z,12.20
2018-12-17T23:16:26.709Z,12.60
2018-12-17T23:18:53.775Z,13.20
2018-12-17T23:21:21.289Z,13.73
2018-12-17T23:23:48.806Z,15.83
2018-12-17T23:26:16.266Z,12.67
2018-12-17T23:28:43.770Z,12.63
2018-12-17T23:31:11.235Z,15.30
2018-12-17T23:33:38.744Z,13.67
2018-12-17T23:36:07.106Z,14.40
2018-12-17T23:38:34.610Z,15.30
2018-12-17T23:41:02.078Z,14.70
2018-12-17T23:43:29.573Z,14.87
2018-12-17T23:45:57.044Z,14.47
2018-12-17T23:48:24.565Z,14.90
2018-12-17T23:50:52.043Z,15.63
2018-12-17T23:53:19.513Z,16.10
2018-12-17T23:55:46.979Z,15.07
2018-12-17T23:58:14.460Z,15.10
